createdAt,value
2022-10-11T00:00:54.499Z,100448.38
2022-10-11T00:03:22.849Z,100444.28
2022-10-11T00:05:50.949Z,100446.84
2022-10-11T00:08:18.927Z,100448.72
2022-10-11T00:10:57.844Z,100440.94
2022-10-11T00:13:25.970Z,100440.19
2022-10-11T00:15:54.002Z,100438.81
2022-10-11T00:18:22.101Z,100443.41
2022-10-11T00:20:50.264Z,100437.72
2022-10-11T00:23:18.296Z,100439.81
2022-10-11T00:25:46.333Z,100420.91
2022-10-11T00:28:15.710Z,100435.56
2022-10-11T00:30:44.814Z,100435.81
2022-10-11T00:33:12.836Z,100434.38
2022-10-11T00:35:41.780Z,100439.13
2022-10-11T00:38:09.758Z,100428.91
2022-10-11T00:40:37.832Z,100430.94
2022-10-11T00:43:06.326Z,100439.63
2022-10-11T00:46:06.543Z,100436.28
2022-10-11T00:48:41.704Z,100434.59
2022-10-11T00:51:18.241Z,100429.41
2022-10-11T00:53:48.796Z,100423.59
2022-10-11T00:56:21.927Z,100418.56
2022-10-11T00:58:50.199Z,100419.34
2022-10-11T01:01:19.701Z,100419.50
2022-10-11T01:03:48.311Z,100422.28
2022-10-11T01:06:16.319Z,100416.16
2022-10-11T01:08:45.384Z,100414.72
2022-10-11T01:11:16.237Z,100421.00
2022-10-11T01:13:57.834Z,100412.47
2022-10-11T01:16:35.505Z,100414.34
2022-10-11T01:19:19.840Z,100422.19
2022-10-11T01:21:53.999Z,100424.03
2022-10-11T01:24:35.769Z,100418.69
2022-10-11T01:27:34.010Z,100416.75
2022-10-11T01:30:25.309Z,100406.88
2022-10-11T01:33:01.927Z,100400.97
2022-10-11T01:35:36.584Z,100408.81
2022-10-11T01:38:10.322Z,100409.59
2022-10-11T01:40:43.303Z,100404.56
2022-10-11T01:43:11.622Z,100410.94
2022-10-11T01:45:41.871Z,100407.94
2022-10-11T01:48:12.718Z,100396.81
2022-10-11T01:50:44.691Z,100403.03
2022-10-11T01:53:41.531Z,100403.13
2022-10-11T01:56:22.932Z,100396.56
2022-10-11T01:59:07.601Z,100397.25
2022-10-11T02:01:45.198Z,100410.84
2022-10-11T02:04:24.677Z,100406.03
2022-10-11T02:07:00.546Z,100401.38
2022-10-11T02:09:33.978Z,100399.84
2022-10-11T02:12:08.898Z,100405.88
2022-10-11T02:14:40.787Z,100400.69
2022-10-11T02:17:14.081Z,100402.38
2022-10-11T02:19:46.787Z,100397.19
2022-10-11T02:22:16.943Z,100397.09
2022-10-11T02:24:49.484Z,100395.25
2022-10-11T02:27:21.330Z,100402.25
2022-10-11T02:29:52.291Z,100401.69
2022-10-11T02:32:23.293Z,100404.00
2022-10-11T02:34:54.830Z,100403.63
2022-10-11T02:37:29.315Z,100399.09
2022-10-11T02:40:04.207Z,100397.66
2022-10-11T02:42:37.376Z,100391.28
2022-10-11T02:45:12.289Z,100399.22
2022-10-11T02:47:43.818Z,100401.56
2022-10-11T02:50:12.378Z,100403.09
2022-10-11T02:52:40.769Z,100403.84
2022-10-11T02:55:09.860Z,100408.38
2022-10-11T02:57:37.894Z,100408.38
2022-10-11T03:00:07.044Z,100411.88
2022-10-11T03:02:35.076Z,100415.28
2022-10-11T03:05:04.949Z,100412.63
2022-10-11T03:07:32.959Z,100402.25
2022-10-11T03:10:00.989Z,100404.78
2022-10-11T03:12:28.956Z,100408.97
2022-10-11T03:14:57.045Z,100410.72
2022-10-11T03:17:36.005Z,100406.78
2022-10-11T03:20:07.627Z,100406.19
2022-10-11T03:22:35.649Z,100406.69
2022-10-11T03:25:04.779Z,100415.84
2022-10-11T03:27:33.346Z,100418.88
2022-10-11T03:30:01.403Z,100416.59
2022-10-11T03:32:29.954Z,100414.34
2022-10-11T03:34:58.295Z,100419.25
2022-10-11T03:37:27.960Z,100419.47
2022-10-11T03:39:55.984Z,100421.31
2022-10-11T03:42:24.000Z,100425.59
2022-10-11T03:44:52.148Z,100430.03
2022-10-11T03:47:20.209Z,100423.03
2022-10-11T03:49:48.275Z,100428.47
2022-10-11T03:52:16.306Z,100430.31
2022-10-11T03:54:45.681Z,100426.75
2022-10-11T03:57:13.682Z,100435.22
2022-10-11T03:59:41.985Z,100438.56
2022-10-11T04:02:10.399Z,100432.97
2022-10-11T04:04:38.499Z,100430.88
2022-10-11T04:07:06.537Z,100437.06
2022-10-11T04:09:34.555Z,100427.03
2022-10-11T04:12:04.032Z,100432.75
2022-10-11T04:14:32.197Z,100432.34
2022-10-11T04:17:00.611Z,100420.50
2022-10-11T04:19:29.425Z,100425.38
2022-10-11T04:21:57.420Z,100433.00
2022-10-11T04:24:25.393Z,100431.25
2022-10-11T04:26:53.497Z,100443.88
2022-10-11T04:29:23.014Z,100441.22
2022-10-11T04:31:51.300Z,100441.66
2022-10-11T04:34:19.694Z,100440.72
2022-10-11T04:36:50.031Z,100443.66
2022-10-11T04:39:18.581Z,100438.38
2022-10-11T04:41:46.630Z,100433.44
2022-10-11T04:44:14.682Z,100435.84
2022-10-11T04:46:44.028Z,100429.16
2022-10-11T04:49:12.107Z,100427.06
2022-10-11T04:51:40.214Z,100431.56
2022-10-11T04:54:08.188Z,100431.13
2022-10-11T04:56:36.189Z,100431.63
2022-10-11T04:59:04.547Z,100427.53
2022-10-11T05:01:32.565Z,100429.94
2022-10-11T05:04:02.033Z,100435.72
2022-10-11T05:06:30.166Z,100437.97
2022-10-11T05:08:58.275Z,100438.69
2022-10-11T05:11:26.229Z,100407.81
2022-10-11T05:13:54.374Z,100438.53
2022-10-11T05:16:22.414Z,100447.19
2022-10-11T05:18:50.630Z,100447.19
2022-10-11T05:21:21.766Z,100452.34
2022-10-11T05:23:51.215Z,100458.38
2022-10-11T05:26:20.231Z,100458.63
2022-10-11T05:28:48.532Z,100457.06
2022-10-11T05:31:17.367Z,100462.28
2022-10-11T05:33:45.833Z,100456.75
2022-10-11T05:36:14.214Z,100455.44
2022-10-11T05:38:43.605Z,100460.22
2022-10-11T05:41:14.065Z,100464.84
2022-10-11T05:43:42.180Z,100467.94
2022-10-11T05:46:10.585Z,100472.72
2022-10-11T05:48:38.867Z,100471.47
2022-10-11T05:51:10.103Z,100474.19
2022-10-11T05:53:38.346Z,100479.44
2022-10-11T05:56:19.112Z,100480.47
2022-10-11T05:58:47.080Z,100479.94
2022-10-11T06:01:19.973Z,100479.94
2022-10-11T06:03:48.023Z,100480.06
2022-10-11T06:06:16.283Z,100486.47
2022-10-11T06:08:44.336Z,100490.78
2022-10-11T06:11:16.250Z,100494.97
2022-10-11T06:13:44.654Z,100491.03
2022-10-11T06:16:13.548Z,100493.28
2022-10-11T06:18:41.828Z,100499.56
2022-10-11T06:21:09.885Z,100492.22
2022-10-11T06:23:37.964Z,100499.78
2022-10-11T06:26:08.468Z,100504.03
2022-10-11T06:28:38.557Z,100496.22
2022-10-11T06:31:07.433Z,100497.78
2022-10-11T06:33:36.361Z,100494.50
2022-10-11T06:36:07.643Z,100491.63
2022-10-11T06:38:37.288Z,100494.00
2022-10-11T06:41:12.074Z,100488.91
2022-10-11T06:43:41.484Z,100486.88
2022-10-11T06:46:16.551Z,100493.59
2022-10-11T06:48:46.422Z,100499.03
2022-10-11T06:51:16.349Z,100496.78
2022-10-11T06:53:44.871Z,100499.13
2022-10-11T06:56:14.178Z,100493.16
2022-10-11T06:58:43.638Z,100499.13
2022-10-11T07:01:13.970Z,100499.13
2022-10-11T07:03:41.976Z,100500.28
2022-10-11T07:06:12.224Z,100511.00
2022-10-11T07:08:40.456Z,100516.91
2022-10-11T07:11:10.860Z,100512.59
2022-10-11T07:13:40.241Z,100512.63
2022-10-11T07:16:11.742Z,100514.38
2022-10-11T07:18:40.357Z,100508.72
2022-10-11T07:21:12.092Z,100498.72
2022-10-11T07:23:40.793Z,100515.09
2022-10-11T07:26:10.658Z,100506.38
2022-10-11T07:28:39.967Z,100506.19
2022-10-11T07:31:11.581Z,100506.84
2022-10-11T07:33:40.122Z,100504.22
2022-10-11T07:36:09.297Z,100507.59
2022-10-11T07:38:41.657Z,100511.31
2022-10-11T07:41:10.576Z,100516.88
2022-10-11T07:43:39.239Z,100512.41
2022-10-11T07:46:08.245Z,100505.56
2022-10-11T07:48:38.639Z,100517.22
2022-10-11T07:51:09.353Z,100525.00
2022-10-11T07:53:41.868Z,100513.25
2022-10-11T07:56:12.593Z,100515.03
2022-10-11T07:58:40.712Z,100521.03
2022-10-11T08:01:09.709Z,100518.06
2022-10-11T08:03:39.591Z,100522.16
2022-10-11T08:06:10.174Z,100514.69
2022-10-11T08:08:39.039Z,100516.13
2022-10-11T08:11:07.805Z,100518.00
2022-10-11T08:13:36.382Z,100515.81
2022-10-11T08:16:12.232Z,100525.19
2022-10-11T08:18:41.599Z,100520.09
2022-10-11T08:21:10.489Z,100515.94
2022-10-11T08:23:38.544Z,100527.34
2022-10-11T08:26:07.635Z,100525.78
2022-10-11T08:28:36.277Z,100523.59
2022-10-11T08:31:04.357Z,100519.31
2022-10-11T08:33:32.394Z,100521.00
2022-10-11T08:36:06.089Z,100524.53
2022-10-11T08:38:34.808Z,100521.91
2022-10-11T08:41:02.956Z,100523.13
2022-10-11T08:43:41.624Z,100517.78
2022-10-11T08:46:11.487Z,100521.47
2022-10-11T08:48:43.370Z,100520.47
2022-10-11T08:51:19.770Z,100523.03
2022-10-11T08:53:53.029Z,100513.94
2022-10-11T08:56:22.728Z,100516.13
2022-10-11T08:58:55.787Z,100520.97
2022-10-11T09:01:27.295Z,100516.38
2022-10-11T09:03:57.630Z,100519.88
2022-10-11T09:06:38.622Z,100523.13
2022-10-11T09:09:32.795Z,100527.41
2022-10-11T09:12:12.225Z,100524.72
2022-10-11T09:14:56.005Z,100531.63
2022-10-11T09:17:39.426Z,100528.19
2022-10-11T09:20:33.286Z,100528.19
2022-10-11T09:23:05.777Z,100526.75
2022-10-11T09:25:35.374Z,100537.19
2022-10-11T09:28:15.304Z,100536.31
2022-10-11T09:30:49.774Z,100533.94
2022-10-11T09:33:21.078Z,100536.94
2022-10-11T09:35:50.863Z,100541.94
2022-10-11T09:38:43.214Z,100541.22
2022-10-11T09:41:19.550Z,100538.94
2022-10-11T09:43:49.523Z,100541.03
2022-10-11T09:46:23.350Z,100545.63
2022-10-11T09:48:54.630Z,100541.00
2022-10-11T09:51:26.658Z,100534.38
2022-10-11T09:54:00.817Z,100541.69
2022-10-11T09:56:31.162Z,100538.88
2022-10-11T09:59:10.562Z,100537.66
2022-10-11T10:01:38.798Z,100546.00
2022-10-11T10:04:09.870Z,100541.28
2022-10-11T10:06:38.822Z,100536.06
2022-10-11T10:09:26.438Z,100536.47
2022-10-11T10:11:55.127Z,100536.63
2022-10-11T10:14:26.805Z,100533.81
2022-10-11T10:17:07.060Z,100523.13
2022-10-11T10:19:45.036Z,100524.69
2022-10-11T10:22:19.980Z,100518.78
2022-10-11T10:24:51.398Z,100521.41
2022-10-11T10:27:23.147Z,100518.97
2022-10-11T10:30:03.719Z,100517.94
2022-10-11T10:32:37.258Z,100523.53
2022-10-11T10:35:14.368Z,100518.00
2022-10-11T10:37:47.124Z,100522.78
2022-10-11T10:40:22.781Z,100524.03
2022-10-11T10:42:51.480Z,100526.03
2022-10-11T10:45:21.812Z,100517.69
2022-10-11T10:48:04.333Z,100522.59
2022-10-11T10:50:48.476Z,100515.81
2022-10-11T10:53:25.564Z,100515.72
2022-10-11T10:56:04.135Z,100512.19
2022-10-11T10:58:45.168Z,100514.81
2022-10-11T11:01:20.136Z,100511.56
2022-10-11T11:03:54.201Z,100506.22
2022-10-11T11:06:32.818Z,100512.09
2022-10-11T11:09:15.308Z,100513.00
2022-10-11T11:11:54.684Z,100507.22
2022-10-11T11:14:32.947Z,100506.97
2022-10-11T11:17:10.147Z,100504.72
2022-10-11T11:19:50.527Z,100500.38
2022-10-11T11:22:32.600Z,100508.84
2022-10-11T11:25:13.755Z,100505.00
2022-10-11T11:27:55.573Z,100504.63
2022-10-11T11:30:27.089Z,100495.94
2022-10-11T11:33:07.367Z,100498.28
2022-10-11T11:35:39.577Z,100492.00
2022-10-11T11:38:15.916Z,100495.88
2022-10-11T11:40:49.268Z,100493.34
2022-10-11T11:43:24.818Z,100495.88
2022-10-11T11:45:56.656Z,100486.72
2022-10-11T11:48:26.395Z,100481.81
2022-10-11T11:51:01.452Z,100479.69
2022-10-11T11:53:47.902Z,100481.53
2022-10-11T11:56:27.832Z,100476.75
2022-10-11T11:59:04.383Z,100478.78
2022-10-11T12:01:42.476Z,100482.75
2022-10-11T12:04:17.152Z,100478.75
2022-10-11T12:07:11.186Z,100475.06
2022-10-11T12:09:34.331Z,100480.16
2022-10-11T12:12:05.094Z,100472.84
2022-10-11T12:14:40.999Z,100467.47
2022-10-11T12:17:16.370Z,100468.03
2022-10-11T12:20:00.627Z,100468.84
2022-10-11T12:22:42.856Z,100459.25
2022-10-11T12:25:33.334Z,100464.59
2022-10-11T12:28:02.921Z,100463.78
2022-10-11T12:30:54.664Z,100460.25
2022-10-11T12:33:25.347Z,100460.94
2022-10-11T12:36:07.332Z,100456.22
2022-10-11T12:38:39.844Z,100458.72
2022-10-11T12:41:49.623Z,100453.34
2022-10-11T12:44:23.092Z,100453.06
2022-10-11T12:47:21.920Z,100457.88
2022-10-11T12:50:05.057Z,100450.66
2022-10-11T12:52:41.561Z,100452.50
2022-10-11T12:55:30.242Z,100455.34
2022-10-11T12:58:30.454Z,100448.84
2022-10-11T13:01:23.454Z,100452.94
2022-10-11T13:04:04.726Z,100447.16
2022-10-11T13:06:34.897Z,100449.97
2022-10-11T13:09:08.359Z,100452.06
2022-10-11T13:11:40.293Z,100451.66
2022-10-11T13:14:11.779Z,100449.38
2022-10-11T13:16:51.166Z,100444.69
2022-10-11T13:19:24.185Z,100446.59
2022-10-11T13:21:55.624Z,100447.69
2022-10-11T13:24:24.685Z,100441.78
2022-10-11T13:26:58.122Z,100447.38
2022-10-11T13:29:33.793Z,100453.81
2022-10-11T13:32:04.534Z,100451.44
2022-10-11T13:34:38.750Z,100454.34
2022-10-11T13:37:07.717Z,100457.00
2022-10-11T13:39:37.738Z,100455.22
2022-10-11T13:42:10.032Z,100468.13
2022-10-11T13:44:39.627Z,100459.38
2022-10-11T13:47:08.082Z,100459.66
2022-10-11T13:49:39.935Z,100459.84
2022-10-11T13:52:21.959Z,100463.38
2022-10-11T13:55:11.561Z,100459.56
2022-10-11T13:57:43.416Z,100456.44
2022-10-11T14:00:24.673Z,100463.09
2022-10-11T14:02:58.074Z,100466.50
2022-10-11T14:05:31.915Z,100449.59
2022-10-11T14:08:02.659Z,100459.66
2022-10-11T14:10:31.311Z,100452.66
2022-10-11T14:13:15.411Z,100453.69
2022-10-11T14:15:43.596Z,100459.34
2022-10-11T14:18:41.549Z,100456.00
2022-10-11T14:21:36.016Z,100455.94
2022-10-11T14:24:06.375Z,100456.66
2022-10-11T14:26:37.499Z,100464.44
2022-10-11T14:29:09.344Z,100463.03
2022-10-11T14:31:41.529Z,100453.03
2022-10-11T14:34:17.535Z,100456.97
2022-10-11T14:36:47.426Z,100451.81
2022-10-11T14:39:18.046Z,100465.13
2022-10-11T14:41:46.408Z,100460.91
2022-10-11T14:44:16.842Z,100459.22
2022-10-11T14:46:45.494Z,100463.16
2022-10-11T14:49:15.802Z,100455.53
2022-10-11T14:51:44.986Z,100460.53
2022-10-11T14:54:15.552Z,100456.97
2022-10-11T14:56:43.671Z,100457.63
2022-10-11T14:59:16.148Z,100463.63
2022-10-11T15:01:44.424Z,100464.16
2022-10-11T15:04:12.481Z,100452.28
2022-10-11T15:06:42.170Z,100462.72
2022-10-11T15:09:10.219Z,100452.88
2022-10-11T15:11:39.818Z,100464.56
2022-10-11T15:14:08.023Z,100465.19
2022-10-11T15:16:36.701Z,100469.63
2022-10-11T15:19:04.824Z,100464.00
2022-10-11T15:21:32.930Z,100483.09
2022-10-11T15:24:00.973Z,100478.88
2022-10-11T15:26:30.546Z,100482.03
2022-10-11T15:29:01.952Z,100483.06
2022-10-11T15:31:29.981Z,100470.94
2022-10-11T15:33:59.736Z,100481.78
2022-10-11T15:36:28.826Z,100488.69
2022-10-11T15:38:57.511Z,100494.38
2022-10-11T15:41:25.603Z,100492.69
2022-10-11T15:43:53.558Z,100495.88
2022-10-11T15:46:23.999Z,100490.03
2022-10-11T15:48:52.847Z,100499.13
2022-10-11T15:51:20.935Z,100493.31
2022-10-11T15:53:48.940Z,100499.72
2022-10-11T15:56:19.489Z,100503.50
2022-10-11T15:58:47.600Z,100505.94
2022-10-11T16:01:18.061Z,100502.03
2022-10-11T16:03:48.599Z,100502.75
2022-10-11T16:06:16.738Z,100501.31
2022-10-11T16:08:44.986Z,100508.69
2022-10-11T16:11:13.837Z,100510.00
2022-10-11T16:13:42.071Z,100510.34
2022-10-11T16:16:11.020Z,100517.72
2022-10-11T16:18:39.576Z,100514.81
2022-10-11T16:21:10.712Z,100523.16
2022-10-11T16:23:39.224Z,100516.84
2022-10-11T16:26:09.589Z,100523.50
2022-10-11T16:28:38.160Z,100517.56
2022-10-11T16:31:09.638Z,100518.25
2022-10-11T16:33:46.053Z,100529.34
2022-10-11T16:36:31.189Z,100531.00
2022-10-11T16:38:59.763Z,100532.63
2022-10-11T16:41:28.034Z,100536.72
2022-10-11T16:43:56.946Z,100542.59
2022-10-11T16:46:25.225Z,100548.16
2022-10-11T16:48:55.996Z,100548.00
2022-10-11T16:51:26.055Z,100545.75
2022-10-11T16:53:54.381Z,100543.84
2022-10-11T16:56:24.196Z,100551.50
2022-10-11T16:58:52.931Z,100546.59
2022-10-11T17:01:21.203Z,100556.47
2022-10-11T17:03:50.723Z,100549.91
2022-10-11T17:06:19.465Z,100552.56
2022-10-11T17:08:48.872Z,100551.69
2022-10-11T17:11:17.763Z,100564.03
2022-10-11T17:13:46.280Z,100563.56
2022-10-11T17:16:14.368Z,100575.66
2022-10-11T17:18:42.457Z,100569.09
2022-10-11T17:21:13.527Z,100560.97
2022-10-11T17:23:42.163Z,100570.94
2022-10-11T17:26:17.614Z,100573.69
2022-10-11T17:28:48.592Z,100573.28
2022-10-11T17:31:16.666Z,100571.59
2022-10-11T17:33:44.874Z,100571.41
2022-10-11T17:36:22.557Z,100575.75
2022-10-11T17:38:52.180Z,100571.59
2022-10-11T17:41:21.994Z,100580.88
2022-10-11T17:43:50.379Z,100588.84
2022-10-11T17:46:23.187Z,100592.13
2022-10-11T17:48:55.420Z,100589.03
2022-10-11T17:51:27.431Z,100583.06
2022-10-11T17:53:58.339Z,100589.34
2022-10-11T17:56:36.562Z,100593.03
2022-10-11T17:59:05.892Z,100586.63
2022-10-11T18:01:34.312Z,100590.16
2022-10-11T18:04:04.565Z,100587.81
2022-10-11T18:06:34.528Z,100588.47
2022-10-11T18:09:04.698Z,100590.88
2022-10-11T18:11:34.410Z,100589.06
2022-10-11T18:14:03.096Z,100591.72
2022-10-11T18:16:31.776Z,100585.56
2022-10-11T18:19:00.741Z,100604.88
2022-10-11T18:21:34.287Z,100599.41
2022-10-11T18:24:04.196Z,100599.56
2022-10-11T18:26:33.865Z,100594.81
2022-10-11T18:29:01.948Z,100594.81
2022-10-11T18:31:34.256Z,100591.31
2022-10-11T18:34:03.355Z,100593.31
2022-10-11T18:36:32.390Z,100593.78
2022-10-11T18:39:02.896Z,100595.78
2022-10-11T18:41:33.937Z,100603.31
2022-10-11T18:44:04.109Z,100603.78
2022-10-11T18:46:32.709Z,100591.16
2022-10-11T18:49:02.494Z,100602.00
2022-10-11T18:51:32.485Z,100600.00
2022-10-11T18:54:01.289Z,100599.53
2022-10-11T18:56:31.141Z,100599.91
2022-10-11T18:59:01.458Z,100599.44
2022-10-11T19:01:31.835Z,100590.88
2022-10-11T19:04:01.858Z,100593.75
2022-10-11T19:06:32.255Z,100594.09
2022-10-11T19:09:02.259Z,100598.66
2022-10-11T19:11:30.699Z,100588.13
2022-10-11T19:14:02.180Z,100593.13
2022-10-11T19:16:31.122Z,100593.38
2022-10-11T19:19:02.193Z,100587.00
2022-10-11T19:21:30.342Z,100596.25
2022-10-11T19:23:59.087Z,100599.25
2022-10-11T19:26:29.387Z,100602.09
2022-10-11T19:29:01.571Z,100599.81
2022-10-11T19:31:30.735Z,100603.13
2022-10-11T19:33:59.302Z,100603.47
2022-10-11T19:36:32.545Z,100606.38
2022-10-11T19:39:02.188Z,100590.88
2022-10-11T19:41:30.194Z,100609.97
2022-10-11T19:43:59.185Z,100601.25
2022-10-11T19:46:50.593Z,100603.00
2022-10-11T19:49:20.469Z,100606.91
2022-10-11T19:51:49.355Z,100605.94
2022-10-11T19:54:18.711Z,100610.59
2022-10-11T19:56:48.361Z,100611.28
2022-10-11T19:59:17.143Z,100611.13
2022-10-11T20:01:52.260Z,100610.44
2022-10-11T20:07:09.855Z,100619.16
2022-10-11T20:09:38.100Z,100621.81
2022-10-11T20:12:06.654Z,100620.88
2022-10-11T20:14:34.841Z,100621.81
2022-10-11T20:17:04.357Z,100613.66
2022-10-11T20:19:32.339Z,100623.25
2022-10-11T20:22:01.234Z,100626.66
2022-10-11T20:24:33.115Z,100626.41
2022-10-11T20:27:02.585Z,100621.34
2022-10-11T20:29:30.620Z,100623.94
2022-10-11T20:31:59.081Z,100619.75
2022-10-11T20:34:28.940Z,100623.41
2022-10-11T20:36:56.977Z,100628.03
2022-10-11T20:39:25.483Z,100624.81
2022-10-11T20:41:53.633Z,100627.03
2022-10-11T20:44:21.946Z,100624.34
2022-10-11T20:46:50.082Z,100631.44
2022-10-11T20:49:21.006Z,100620.78
2022-10-11T20:51:50.557Z,100627.44
2022-10-11T20:54:19.942Z,100628.66
2022-10-11T20:56:48.728Z,100630.06
2022-10-11T20:59:16.822Z,100619.25
2022-10-11T21:01:44.870Z,100624.00
2022-10-11T21:04:19.797Z,100625.25
2022-10-11T21:06:48.836Z,100632.59
2022-10-11T21:09:19.222Z,100627.84
2022-10-11T21:11:47.515Z,100633.38
2022-10-11T21:14:15.523Z,100624.91
2022-10-11T21:16:43.498Z,100630.53
2022-10-11T21:19:17.004Z,100641.09
2022-10-11T21:21:49.674Z,100628.72
2022-10-11T21:24:22.671Z,100635.63
2022-10-11T21:26:50.713Z,100635.47
2022-10-11T21:29:19.136Z,100619.63
2022-10-11T21:31:47.126Z,100634.22
2022-10-11T21:34:15.273Z,100628.16
2022-10-11T21:36:43.600Z,100638.56
2022-10-11T21:39:11.658Z,100636.88
2022-10-11T21:41:43.278Z,100642.16
2022-10-11T21:44:11.250Z,100637.03
2022-10-11T21:47:05.346Z,100641.38
2022-10-11T21:49:27.228Z,100640.63
2022-10-11T21:51:55.560Z,100642.47
2022-10-11T21:54:23.704Z,100636.72
2022-10-11T21:56:53.384Z,100632.72
2022-10-11T21:59:22.598Z,100636.75
2022-10-11T22:01:50.728Z,100638.78
2022-10-11T22:04:18.821Z,100637.22
2022-10-11T22:06:46.880Z,100645.53
2022-10-11T22:09:14.901Z,100641.66
2022-10-11T22:11:42.910Z,100645.59
2022-10-11T22:14:12.274Z,100638.91
2022-10-11T22:16:40.279Z,100634.22
2022-10-11T22:19:08.569Z,100640.81
2022-10-11T22:21:39.090Z,100641.25
2022-10-11T22:24:09.663Z,100639.88
2022-10-11T22:26:37.997Z,100638.44
2022-10-11T22:29:06.092Z,100637.09
2022-10-11T22:31:36.270Z,100641.56
2022-10-11T22:34:04.358Z,100636.31
2022-10-11T22:36:33.737Z,100635.53
2022-10-11T22:39:02.864Z,100644.22
2022-10-11T22:41:33.852Z,100646.94
2022-10-11T22:44:01.966Z,100636.47
2022-10-11T22:46:30.031Z,100633.16
2022-10-11T22:48:59.413Z,100633.53
2022-10-11T22:51:27.427Z,100638.97
2022-10-11T22:53:55.470Z,100632.00
2022-10-11T22:56:23.436Z,100645.28
2022-10-11T22:58:51.454Z,100639.91
2022-10-11T23:01:19.484Z,100636.59
2022-10-11T23:03:49.544Z,100648.00
2022-10-11T23:06:19.520Z,100648.19
2022-10-11T23:08:47.524Z,100640.50
2022-10-11T23:11:15.545Z,100645.97
2022-10-11T23:13:43.556Z,100647.09
2022-10-11T23:16:13.673Z,100649.03
2022-10-11T23:18:41.724Z,100657.78
2022-10-11T23:21:10.245Z,100655.44
2022-10-11T23:23:40.411Z,100660.78
2022-10-11T23:26:10.537Z,100653.72
2022-10-11T23:28:38.704Z,100665.34
2022-10-11T23:31:11.398Z,100658.50
2022-10-11T23:33:39.734Z,100660.31
2022-10-11T23:36:14.225Z,100665.47
2022-10-11T23:38:43.677Z,100661.03
2022-10-11T23:41:12.028Z,100662.75
2022-10-11T23:43:40.024Z,100661.16
2022-10-11T23:46:08.105Z,100664.81
2022-10-11T23:48:36.165Z,100669.22
2022-10-11T23:51:04.182Z,100672.84
2022-10-11T23:53:32.202Z,100684.03
2022-10-11T23:56:01.552Z,100679.44
2022-10-11T23:58:29.557Z,100676.44
